Portada
METAR-TAF:

METAR-TAF

Aeroports :

Berlin, Nova Hampshire, Estats Units d'Amèrica

latitud: 44-34-34N, longitud: 071-10-43W, altitud: 353 m

Observació

L'informe es va fer fa 41 minuts, a les 17:52 UTC
Vent 12 kt del Sud/Sud-Est amb ràfegues de 17 kt
Temperatura 26°C
Humitat 74%
Pressió 1005 hPa
Visibilitat: 16.1 km
Escasses núvols a una alçada de 4100 ft
Cel ennuvolat a una alçada de 4800 ft
Cel cobert a una alçada de 6000 ft

METAR: KBML 111752Z AUTO 16012G17KT 10SM FEW041 BKN048 OVC060 26/21 A2968 RMK AO2 SLP045 60005 T02610211 10261 20228 56005

Hora: 14:33 (18:33 UTC)


TAF: manca

Observacions i pronòstics meteorològics de més de 4000 aeroports (METAR i TAF).

Les estacions disponibles són els punts grocs i vermells al mapa.

Posi el ratolí al punt desitjat per veure el nom de l'estació.

Feu clic per veure les observacions i els pronòstics meteorològics.

Per canviar el mapa: feu clic els botons verds amb una creu de color negre per apropar; al botó verd amb un guió per allunyar la imatge; o en les fletxes verdes per a mapes adjacents.


METAR-TAF: